createdAt,value
2018-01-11T00:00:43.078Z,52.50
2018-01-11T00:03:10.242Z,52.60
2018-01-11T00:05:37.410Z,52.60
2018-01-11T00:08:04.579Z,52.50
2018-01-11T00:10:31.747Z,52.70
2018-01-11T00:12:58.964Z,52.80
2018-01-11T00:15:26.139Z,52.90
2018-01-11T00:17:53.341Z,52.50
2018-01-11T00:20:20.505Z,52.40
2018-01-11T00:22:47.714Z,52.50
2018-01-11T00:25:14.886Z,52.60
2018-01-11T00:27:42.865Z,53.00
2018-01-11T00:30:10.042Z,53.00
2018-01-11T00:32:37.209Z,52.70
2018-01-11T00:35:04.378Z,52.70
2018-01-11T00:37:31.544Z,53.00
2018-01-11T00:39:59.483Z,53.10
2018-01-11T00:42:27.454Z,52.80
2018-01-11T00:44:54.634Z,52.80
2018-01-11T00:47:21.802Z,52.60
2018-01-11T00:49:49.778Z,52.90
2018-01-11T00:52:17.714Z,52.80
2018-01-11T00:54:44.927Z,52.80
2018-01-11T00:57:12.093Z,52.80
2018-01-11T00:59:39.298Z,52.70
2018-01-11T01:02:07.270Z,52.20
2018-01-11T01:04:35.240Z,52.20
2018-01-11T01:07:03.183Z,53.00
2018-01-11T01:09:30.355Z,53.00
2018-01-11T01:11:58.294Z,52.90
2018-01-11T01:14:25.462Z,52.80
2018-01-11T01:16:52.668Z,52.70
2018-01-11T01:19:19.833Z,52.20
2018-01-11T01:21:47.038Z,51.80
2018-01-11T01:24:14.977Z,51.90
2018-01-11T01:26:42.145Z,51.90
2018-01-11T01:29:10.082Z,52.60
2018-01-11T01:31:37.289Z,52.50
2018-01-11T01:34:04.454Z,52.60
2018-01-11T01:36:31.626Z,52.60
2018-01-11T01:38:58.806Z,52.70
2018-01-11T01:41:25.978Z,52.30
2018-01-11T01:43:53.950Z,52.20
2018-01-11T01:46:21.919Z,51.90
2018-01-11T01:48:49.849Z,52.10
2018-01-11T01:51:17.056Z,52.00
2018-01-11T01:53:44.230Z,51.90
2018-01-11T01:56:11.433Z,51.80
2018-01-11T01:58:39.378Z,52.90
2018-01-11T02:01:06.586Z,52.10
2018-01-11T02:03:33.756Z,52.30
2018-01-11T02:06:00.975Z,52.30
2018-01-11T02:08:28.915Z,52.50
2018-01-11T02:10:56.086Z,52.50
2018-01-11T02:13:24.054Z,52.80
2018-01-11T02:15:52.000Z,52.50
2018-01-11T02:18:19.981Z,52.20
2018-01-11T02:20:47.149Z,51.90
2018-01-11T02:23:15.125Z,52.60
2018-01-11T02:25:43.057Z,52.60
2018-01-11T02:28:10.990Z,52.60
2018-01-11T02:30:38.210Z,52.80
2018-01-11T02:33:06.154Z,52.70
2018-01-11T02:35:33.318Z,52.60
2018-01-11T02:38:00.490Z,52.60
2018-01-11T02:40:28.426Z,52.50
2018-01-11T02:42:55.589Z,52.50
2018-01-11T02:45:23.539Z,52.60
2018-01-11T02:47:50.750Z,52.60
2018-01-11T02:50:17.925Z,52.40
2018-01-11T02:52:45.126Z,52.80
2018-01-11T02:55:13.105Z,52.30
2018-01-11T02:57:41.073Z,52.20
2018-01-11T03:00:09.009Z,52.80
2018-01-11T03:02:36.209Z,52.60
2018-01-11T03:05:03.373Z,52.40
2018-01-11T03:07:30.574Z,52.10
2018-01-11T03:09:57.743Z,52.80
2018-01-11T03:12:25.678Z,52.60
2018-01-11T03:14:52.877Z,52.40
2018-01-11T03:17:20.809Z,52.60
2018-01-11T03:19:48.009Z,52.50
2018-01-11T03:22:15.173Z,52.40
2018-01-11T03:24:42.382Z,52.60
2018-01-11T03:27:09.548Z,52.20
2018-01-11T03:29:37.482Z,53.10
2018-01-11T03:32:04.685Z,53.00
2018-01-11T03:34:31.849Z,52.40
2018-01-11T03:36:59.058Z,52.60
2018-01-11T03:39:26.229Z,52.90
2018-01-11T03:41:54.201Z,52.10
2018-01-11T03:44:22.173Z,52.10
2018-01-11T03:46:50.110Z,52.30
2018-01-11T03:49:17.275Z,52.30
2018-01-11T03:51:44.443Z,52.20
2018-01-11T03:54:12.414Z,51.80
2018-01-11T03:56:40.349Z,51.90
2018-01-11T03:59:07.551Z,51.90
2018-01-11T04:01:34.724Z,52.30
2018-01-11T04:04:01.938Z,52.30
2018-01-11T04:06:29.874Z,52.10
2018-01-11T04:08:57.037Z,52.10
2018-01-11T04:11:24.206Z,52.70
2018-01-11T04:13:52.133Z,52.50
2018-01-11T04:16:19.338Z,52.50
2018-01-11T04:18:47.273Z,52.80
2018-01-11T04:21:14.442Z,52.70
2018-01-11T04:23:42.377Z,52.50
2018-01-11T04:26:09.551Z,52.50
2018-01-11T04:28:36.714Z,52.60
2018-01-11T04:31:04.654Z,52.80
2018-01-11T04:33:31.862Z,52.80
2018-01-11T04:35:59.069Z,52.70
2018-01-11T04:38:26.234Z,52.50
2018-01-11T04:40:53.441Z,52.30
2018-01-11T04:43:20.641Z,52.90
2018-01-11T04:45:48.577Z,53.10
2018-01-11T04:48:15.746Z,52.70
2018-01-11T04:50:42.913Z,52.70
2018-01-11T04:53:10.881Z,52.40
2018-01-11T04:55:38.821Z,52.20
2018-01-11T04:58:06.027Z,52.20
2018-01-11T05:00:39.001Z,52.90
2018-01-11T05:05:40.656Z,52.60
2018-01-11T05:08:07.822Z,52.70
2018-01-11T05:10:35.753Z,52.10
2018-01-11T05:13:03.690Z,52.30
2018-01-11T05:15:30.902Z,52.30
2018-01-11T05:17:58.066Z,52.50
2018-01-11T05:20:26.033Z,52.50
2018-01-11T05:22:53.971Z,52.50
2018-01-11T05:25:21.941Z,52.20
2018-01-11T05:27:49.105Z,52.20
2018-01-11T05:30:16.274Z,51.90
2018-01-11T05:32:44.253Z,52.80
2018-01-11T05:35:12.182Z,52.60
2018-01-11T05:37:40.110Z,52.10
2018-01-11T05:40:07.282Z,52.00
2018-01-11T05:42:34.454Z,51.80
2018-01-11T05:45:01.616Z,51.70
2018-01-11T05:47:28.785Z,51.50
2018-01-11T05:49:55.953Z,51.50
2018-01-11T05:52:23.881Z,51.90
2018-01-11T05:54:51.091Z,51.90
2018-01-11T05:57:18.298Z,51.50
2018-01-11T05:59:45.501Z,51.50
2018-01-11T06:02:12.700Z,51.70
2018-01-11T06:04:39.878Z,51.50
2018-01-11T06:07:07.862Z,51.40
2018-01-11T06:09:35.030Z,51.40
2018-01-11T06:12:02.198Z,51.30
2018-01-11T06:14:29.366Z,51.80
2018-01-11T06:16:56.530Z,51.80
2018-01-11T06:19:23.702Z,51.70
2018-01-11T06:21:51.638Z,51.90
2018-01-11T06:24:18.806Z,51.80
2018-01-11T06:26:45.969Z,51.80
2018-01-11T06:29:13.193Z,51.70
2018-01-11T06:31:40.342Z,52.40
2018-01-11T06:34:07.510Z,51.80
2018-01-11T06:36:34.713Z,51.70
2018-01-11T06:39:01.898Z,51.80
2018-01-11T06:41:29.102Z,51.70
2018-01-11T06:43:56.306Z,51.90
2018-01-11T06:46:23.481Z,52.00
2018-01-11T06:48:50.693Z,52.00
2018-01-11T06:51:17.862Z,52.00
2018-01-11T06:53:45.026Z,52.00
2018-01-11T06:56:12.239Z,51.80
2018-01-11T06:58:39.406Z,52.20
2018-01-11T07:01:06.621Z,52.30
2018-01-11T07:03:33.786Z,52.20
2018-01-11T07:06:00.974Z,52.20
2018-01-11T07:08:28.139Z,52.10
2018-01-11T07:10:55.309Z,52.10
2018-01-11T07:13:23.242Z,52.10
2018-01-11T07:15:50.406Z,52.00
2018-01-11T07:18:17.626Z,52.10
2018-01-11T07:20:44.797Z,52.20
2018-01-11T07:23:12.730Z,52.30
2018-01-11T07:25:39.899Z,52.10
2018-01-11T07:28:07.075Z,52.20
2018-01-11T07:30:34.250Z,52.10
2018-01-11T07:33:02.190Z,52.00
2018-01-11T07:35:29.457Z,52.00
2018-01-11T07:37:56.622Z,51.90
2018-01-11T07:40:23.789Z,51.90
2018-01-11T07:42:51.721Z,51.90
2018-01-11T07:45:19.850Z,51.80
2018-01-11T07:47:47.022Z,51.90
2018-01-11T07:50:14.275Z,51.80
2018-01-11T07:52:41.531Z,51.70
2018-01-11T07:55:08.702Z,51.60
2018-01-11T07:57:35.845Z,51.70
2018-01-11T08:00:04.004Z,51.60
2018-01-11T08:02:31.251Z,51.60
2018-01-11T08:04:58.386Z,50.80
2018-01-11T08:07:25.563Z,52.00
2018-01-11T08:09:52.705Z,51.90
2018-01-11T08:12:19.842Z,52.10
2018-01-11T08:14:47.089Z,51.90
2018-01-11T08:17:14.220Z,51.80
2018-01-11T08:19:42.212Z,52.50
2018-01-11T08:22:09.364Z,52.50
2018-01-11T08:24:36.496Z,51.90
2018-01-11T08:27:04.485Z,50.90
2018-01-11T08:29:31.737Z,50.90
2018-01-11T08:31:58.886Z,50.30
2018-01-11T08:34:26.026Z,50.00
2018-01-11T08:36:53.934Z,49.90
2018-01-11T08:39:21.187Z,49.90
2018-01-11T08:41:48.331Z,49.80
2018-01-11T08:44:15.502Z,49.90
2018-01-11T08:46:42.642Z,50.30
2018-01-11T08:49:09.787Z,49.70
2018-01-11T08:51:37.018Z,50.00
2018-01-11T08:54:04.155Z,50.50
2018-01-11T08:56:32.061Z,50.50
2018-01-11T08:58:59.197Z,50.50
2018-01-11T09:01:26.333Z,50.40
2018-01-11T09:03:54.243Z,51.00
2018-01-11T09:06:21.386Z,50.90
2018-01-11T09:08:48.529Z,50.90
2018-01-11T09:11:15.669Z,51.80
2018-01-11T09:13:42.809Z,51.50
2018-01-11T09:16:09.979Z,51.30
2018-01-11T09:18:37.114Z,51.00
2018-01-11T09:21:04.322Z,51.00
2018-01-11T09:23:31.463Z,50.90
2018-01-11T09:26:11.239Z,50.70
2018-01-11T09:28:38.648Z,50.70
2018-01-11T09:31:05.806Z,50.70
2018-01-11T09:33:33.008Z,50.50
2018-01-11T09:36:00.929Z,50.70
2018-01-11T09:38:28.077Z,50.70
2018-01-11T09:40:55.221Z,50.80
2018-01-11T09:43:22.474Z,51.10
2018-01-11T09:45:49.616Z,51.00
2018-01-11T09:48:16.781Z,50.90
2018-01-11T09:50:43.920Z,51.00
2018-01-11T09:53:11.961Z,51.00
2018-01-11T09:55:39.866Z,51.00
2018-01-11T09:58:07.001Z,50.90
2018-01-11T10:00:34.130Z,50.90
2018-01-11T10:03:02.034Z,51.40
2018-01-11T10:05:29.165Z,51.40
2018-01-11T10:07:56.329Z,51.10
2018-01-11T10:10:23.469Z,51.10
2018-01-11T10:12:50.601Z,51.10
2018-01-11T10:15:18.506Z,51.60
2018-01-11T10:17:45.643Z,51.60
2018-01-11T10:20:12.782Z,51.40
2018-01-11T10:22:39.917Z,51.20
2018-01-11T10:25:07.824Z,51.70
2018-01-11T10:27:34.958Z,51.60
2018-01-11T10:30:02.133Z,52.10
2018-01-11T10:32:29.322Z,52.10
2018-01-11T10:34:56.457Z,51.50
2018-01-11T10:37:23.588Z,51.80
2018-01-11T10:39:50.729Z,52.10
2018-01-11T10:42:17.873Z,52.00
2018-01-11T10:44:45.018Z,51.60
2018-01-11T10:47:12.152Z,51.50
2018-01-11T10:49:40.056Z,52.00
2018-01-11T10:52:07.190Z,52.00
2018-01-11T10:54:34.326Z,51.60
2018-01-11T10:57:02.225Z,51.50
2018-01-11T10:59:29.357Z,51.50
2018-01-11T11:02:02.328Z,51.50
2018-01-11T11:04:30.226Z,51.70
2018-01-11T11:06:57.366Z,51.70
2018-01-11T11:09:24.539Z,51.60
2018-01-11T11:11:51.698Z,51.60
2018-01-11T11:14:18.886Z,51.50
2018-01-11T11:16:46.790Z,52.40
2018-01-11T11:19:13.929Z,51.80
2018-01-11T11:21:41.062Z,51.80
2018-01-11T11:24:08.967Z,51.80
2018-01-11T11:26:36.105Z,51.70
2018-01-11T11:29:03.239Z,51.90
2018-01-11T11:31:31.150Z,52.00
2018-01-11T11:33:58.290Z,52.60
2018-01-11T11:36:25.430Z,51.80
2018-01-11T11:38:52.569Z,52.00
2018-01-11T11:41:19.708Z,51.80
2018-01-11T11:43:47.635Z,52.20
2018-01-11T11:46:15.559Z,52.10
2018-01-11T11:48:42.729Z,52.10
2018-01-11T11:51:09.892Z,52.10
2018-01-11T11:53:37.087Z,52.20
2018-01-11T11:56:05.025Z,52.50
2018-01-11T11:58:32.162Z,52.50
2018-01-11T12:00:59.303Z,52.60
2018-01-11T12:03:26.442Z,52.50
2018-01-11T12:05:53.622Z,52.30
2018-01-11T12:08:20.763Z,52.30
2018-01-11T12:10:47.901Z,52.50
2018-01-11T12:13:15.038Z,52.50
2018-01-11T12:15:42.174Z,52.70
2018-01-11T12:18:10.087Z,52.60
2018-01-11T12:20:37.222Z,52.50
2018-01-11T12:23:04.358Z,52.70
2018-01-11T12:25:32.260Z,52.80
2018-01-11T12:27:59.400Z,52.80
2018-01-11T12:30:26.534Z,52.70
2018-01-11T12:32:53.665Z,52.50
2018-01-11T12:35:21.622Z,52.90
2018-01-11T12:37:48.754Z,52.90
2018-01-11T12:40:16.038Z,52.70
2018-01-11T12:42:43.945Z,52.50
2018-01-11T12:45:11.092Z,52.50
2018-01-11T12:47:38.230Z,52.40
2018-01-11T12:50:05.361Z,52.40
2018-01-11T12:52:33.277Z,52.40
2018-01-11T12:55:00.421Z,52.40
2018-01-11T12:57:27.598Z,52.60
2018-01-11T12:59:54.737Z,52.50
2018-01-11T13:02:21.886Z,52.50
2018-01-11T13:04:49.038Z,52.50
2018-01-11T13:07:16.180Z,52.60
2018-01-11T13:09:43.317Z,52.40
2018-01-11T13:12:10.492Z,53.00
2018-01-11T13:14:37.626Z,52.80
2018-01-11T13:17:04.765Z,52.70
2018-01-11T13:19:31.909Z,53.10
2018-01-11T13:21:59.042Z,53.30
2018-01-11T13:24:26.949Z,53.90
2018-01-11T13:26:54.121Z,53.90
2018-01-11T13:29:21.267Z,53.80
2018-01-11T13:31:48.405Z,53.70
2018-01-11T13:34:16.305Z,53.20
2018-01-11T13:36:43.443Z,53.20
2018-01-11T13:39:10.582Z,53.40
2018-01-11T13:41:37.722Z,53.60
2018-01-11T13:44:05.628Z,53.20
2018-01-11T13:46:34.390Z,53.20
2018-01-11T13:49:01.525Z,52.90
2018-01-11T13:51:29.433Z,53.00
2018-01-11T13:53:56.590Z,53.00
2018-01-11T13:56:23.731Z,53.40
2018-01-11T13:58:50.867Z,53.30
2018-01-11T14:01:18.007Z,53.00
2018-01-11T14:03:45.910Z,53.00
2018-01-11T14:06:13.047Z,53.00
2018-01-11T14:08:40.187Z,53.10
2018-01-11T14:11:07.333Z,53.20
2018-01-11T14:13:34.471Z,53.20
2018-01-11T14:16:02.386Z,53.00
2018-01-11T14:18:29.543Z,53.00
2018-01-11T14:20:56.679Z,53.20
2018-01-11T14:23:23.816Z,53.30
2018-01-11T14:25:50.948Z,53.40
2018-01-11T14:28:18.855Z,53.10
2018-01-11T14:30:46.003Z,53.10
2018-01-11T14:33:13.162Z,53.50
2018-01-11T14:35:40.297Z,53.30
2018-01-11T14:38:07.470Z,53.20
2018-01-11T14:40:34.605Z,53.10
2018-01-11T14:43:01.797Z,53.20
2018-01-11T14:45:28.928Z,53.10
2018-01-11T14:47:56.062Z,53.00
2018-01-11T14:50:23.290Z,52.90
2018-01-11T14:52:50.426Z,53.20
2018-01-11T14:55:18.338Z,53.30
2018-01-11T14:57:45.480Z,53.20
2018-01-11T15:00:12.617Z,53.10
2018-01-11T15:02:39.757Z,53.00
2018-01-11T15:05:06.898Z,53.20
2018-01-11T15:07:34.801Z,54.00
2018-01-11T15:10:01.938Z,53.90
2018-01-11T15:12:29.077Z,53.60
2018-01-11T15:14:56.213Z,53.70
2018-01-11T15:17:24.116Z,54.00
2018-01-11T15:19:51.287Z,54.00
2018-01-11T15:22:18.425Z,54.10
2018-01-11T15:24:45.562Z,54.10
2018-01-11T15:27:12.741Z,54.10
2018-01-11T15:29:39.882Z,54.00
2018-01-11T15:32:07.017Z,54.10
2018-01-11T15:34:35.193Z,54.20
2018-01-11T15:37:02.338Z,53.80
2018-01-11T15:39:29.473Z,53.70
2018-01-11T15:41:57.417Z,53.20
2018-01-11T15:44:24.553Z,53.20
2018-01-11T15:46:51.686Z,53.20
2018-01-11T15:49:18.826Z,53.20
2018-01-11T15:51:45.963Z,53.20
2018-01-11T15:54:13.102Z,53.30
2018-01-11T15:56:40.246Z,53.20
2018-01-11T15:59:08.157Z,53.10
2018-01-11T16:01:35.296Z,53.10
2018-01-11T16:04:02.490Z,53.20
2018-01-11T16:06:29.630Z,53.20
2018-01-11T16:08:56.770Z,53.30
2018-01-11T16:11:23.922Z,53.20
2018-01-11T16:13:51.085Z,53.20
2018-01-11T16:16:18.254Z,53.20
2018-01-11T16:18:45.426Z,53.30
2018-01-11T16:21:12.636Z,53.50
2018-01-11T16:23:39.801Z,53.20
2018-01-11T16:26:06.966Z,53.00
2018-01-11T16:28:34.902Z,52.90
2018-01-11T16:31:02.878Z,52.90
2018-01-11T16:33:30.045Z,53.40
2018-01-11T16:35:57.213Z,52.80
2018-01-11T16:38:25.147Z,52.70
2018-01-11T16:40:52.362Z,52.70
2018-01-11T16:43:19.529Z,53.00
2018-01-11T16:45:46.706Z,52.90
2018-01-11T16:48:13.923Z,52.80
2018-01-11T16:50:41.099Z,52.80
2018-01-11T16:53:09.080Z,52.70
2018-01-11T16:55:36.254Z,52.70
2018-01-11T16:58:04.202Z,52.70
2018-01-11T17:00:31.384Z,52.70
2018-01-11T17:02:59.356Z,52.70
2018-01-11T17:05:27.289Z,52.70
2018-01-11T17:07:55.421Z,52.60
2018-01-11T17:10:22.592Z,52.60
2018-01-11T17:12:49.767Z,52.60
2018-01-11T17:15:16.935Z,52.60
2018-01-11T17:17:44.100Z,52.60
2018-01-11T17:20:12.038Z,52.80
2018-01-11T17:22:40.006Z,52.90
2018-01-11T17:25:07.207Z,52.90
2018-01-11T17:27:34.403Z,52.80
2018-01-11T17:30:01.615Z,52.70
2018-01-11T17:32:28.826Z,52.70
2018-01-11T17:34:55.995Z,52.70
2018-01-11T17:37:23.929Z,52.90
2018-01-11T17:39:51.131Z,52.80
2018-01-11T17:42:19.062Z,52.90
2018-01-11T17:44:46.233Z,52.80
2018-01-11T17:47:13.413Z,52.70
2018-01-11T17:49:40.626Z,53.50
2018-01-11T17:52:07.845Z,53.00
2018-01-11T17:54:35.020Z,52.90
2018-01-11T17:57:02.226Z,52.70
2018-01-11T17:59:29.505Z,52.80
2018-01-11T18:01:56.905Z,52.80
2018-01-11T18:04:24.878Z,52.90
2018-01-11T18:06:52.188Z,52.80
2018-01-11T18:09:19.781Z,52.60
2018-01-11T18:11:48.585Z,52.60
2018-01-11T18:14:16.781Z,52.60
2018-01-11T18:16:44.745Z,52.30
2018-01-11T18:19:12.682Z,52.30
2018-01-11T18:21:39.880Z,52.30
2018-01-11T18:24:07.090Z,52.10
2018-01-11T18:26:34.275Z,52.10
2018-01-11T18:29:03.266Z,52.10
2018-01-11T18:31:31.250Z,52.10
2018-01-11T18:33:58.462Z,52.10
2018-01-11T18:36:25.622Z,52.20
2018-01-11T18:38:53.602Z,52.70
2018-01-11T18:41:22.269Z,52.40
2018-01-11T18:43:50.221Z,52.30
2018-01-11T18:46:17.419Z,52.30
2018-01-11T18:48:45.358Z,52.40
2018-01-11T18:51:12.571Z,52.40
2018-01-11T18:53:39.762Z,52.30
2018-01-11T18:56:06.938Z,52.50
2018-01-11T18:58:34.913Z,52.30
2018-01-11T19:01:02.850Z,52.30
2018-01-11T19:03:30.068Z,52.30
2018-01-11T19:05:57.235Z,52.30
2018-01-11T19:08:24.402Z,52.20
2018-01-11T19:10:51.574Z,52.30
2018-01-11T19:13:19.518Z,52.20
2018-01-11T19:15:46.695Z,52.20
2018-01-11T19:18:14.630Z,52.60
2018-01-11T19:20:42.626Z,52.20
2018-01-11T19:23:09.790Z,52.20
2018-01-11T19:25:37.742Z,52.80
2018-01-11T19:28:05.739Z,52.20
2018-01-11T19:30:33.725Z,52.20
2018-01-11T19:33:00.949Z,52.10
2018-01-11T19:35:28.126Z,52.20
2018-01-11T19:37:55.317Z,52.20
2018-01-11T19:40:22.481Z,52.40
2018-01-11T19:42:49.646Z,52.40
2018-01-11T19:45:16.817Z,52.50
2018-01-11T19:47:44.750Z,52.40
2018-01-11T19:50:11.968Z,52.40
2018-01-11T19:52:39.134Z,52.50
2018-01-11T19:55:06.294Z,52.40
2018-01-11T19:57:33.466Z,52.30
2018-01-11T20:00:00.635Z,52.20
2018-01-11T20:02:27.805Z,52.70
2018-01-11T20:04:55.741Z,52.50
2018-01-11T20:07:22.905Z,52.40
2018-01-11T20:09:50.077Z,52.80
2018-01-11T20:12:18.005Z,52.70
2018-01-11T20:14:45.283Z,52.80
2018-01-11T20:17:13.236Z,53.90
2018-01-11T20:19:40.401Z,53.20
2018-01-11T20:22:07.571Z,53.30
2018-01-11T20:24:35.510Z,53.00
2018-01-11T20:27:02.675Z,53.00
2018-01-11T20:29:29.850Z,53.00
2018-01-11T20:31:57.054Z,52.80
2018-01-11T20:34:24.222Z,53.00
2018-01-11T20:36:51.394Z,53.10
2018-01-11T20:39:19.389Z,53.10
2018-01-11T20:41:46.561Z,53.10
2018-01-11T20:44:13.769Z,52.90
2018-01-11T20:46:41.706Z,53.00
2018-01-11T20:49:09.675Z,53.00
2018-01-11T20:51:36.837Z,52.80
2018-01-11T20:54:04.005Z,52.70
2018-01-11T20:56:31.172Z,53.00
2018-01-11T20:58:59.110Z,53.00
2018-01-11T21:01:26.277Z,53.00
2018-01-11T21:03:54.218Z,53.00
2018-01-11T21:06:21.385Z,52.90
2018-01-11T21:08:48.553Z,52.90
2018-01-11T21:11:16.490Z,53.50
2018-01-11T21:13:43.649Z,52.80
2018-01-11T21:16:11.643Z,52.40
2018-01-11T21:18:39.597Z,52.50
2018-01-11T21:21:06.794Z,52.50
2018-01-11T21:23:34.007Z,52.50
2018-01-11T21:26:01.175Z,52.40
2018-01-11T21:28:29.110Z,52.30
2018-01-11T21:30:56.277Z,52.20
2018-01-11T21:33:23.443Z,52.90
2018-01-11T21:35:51.380Z,53.20
2018-01-11T21:38:18.550Z,52.70
2018-01-11T21:40:45.721Z,52.70
2018-01-11T21:43:13.697Z,53.00
2018-01-11T21:45:41.637Z,53.10
2018-01-11T21:48:08.806Z,53.00
2018-01-11T21:50:36.747Z,52.50
2018-01-11T21:53:04.719Z,52.40
2018-01-11T21:55:31.934Z,52.40
2018-01-11T21:57:59.105Z,52.40
2018-01-11T22:00:26.273Z,52.40
2018-01-11T22:02:53.437Z,52.40
2018-01-11T22:05:20.649Z,52.40
2018-01-11T22:07:47.813Z,52.30
2018-01-11T22:10:15.017Z,52.40
2018-01-11T22:12:42.948Z,52.20
2018-01-11T22:15:10.149Z,52.30
2018-01-11T22:17:38.118Z,52.50
2018-01-11T22:20:06.046Z,52.30
2018-01-11T22:22:33.253Z,52.30
2018-01-11T22:25:00.449Z,52.30
2018-01-11T22:27:27.613Z,52.30
2018-01-11T22:29:54.809Z,52.40
2018-01-11T22:32:21.976Z,52.40
2018-01-11T22:34:49.177Z,52.50
2018-01-11T22:37:17.118Z,52.00
2018-01-11T22:39:44.325Z,52.40
2018-01-11T22:42:11.480Z,52.40
2018-01-11T22:44:38.690Z,52.50
2018-01-11T22:47:05.855Z,52.40
2018-01-11T22:49:33.826Z,52.70
2018-01-11T22:52:01.762Z,52.80
2018-01-11T22:54:28.986Z,52.80
2018-01-11T22:56:56.190Z,52.90
2018-01-11T22:59:23.389Z,52.80
2018-01-11T23:01:50.593Z,52.60
2018-01-11T23:04:17.759Z,52.80
2018-01-11T23:06:45.718Z,52.80
2018-01-11T23:09:12.965Z,52.50
2018-01-11T23:11:43.045Z,52.70
2018-01-11T23:14:10.213Z,52.90
2018-01-11T23:16:37.386Z,52.50
2018-01-11T23:19:04.558Z,52.40
2018-01-11T23:21:32.495Z,52.70
2018-01-11T23:23:59.765Z,52.70
2018-01-11T23:26:26.933Z,52.90
2018-01-11T23:28:54.869Z,53.00
2018-01-11T23:31:22.033Z,52.90
2018-01-11T23:33:49.203Z,53.10
2018-01-11T23:36:17.190Z,53.00
2018-01-11T23:38:44.362Z,52.90
2018-01-11T23:41:11.530Z,53.10
2018-01-11T23:43:38.705Z,53.10
2018-01-11T23:46:05.872Z,53.00
2018-01-11T23:48:33.814Z,53.90
2018-01-11T23:51:00.981Z,53.20
2018-01-11T23:53:28.147Z,53.40
2018-01-11T23:55:56.124Z,54.20
2018-01-11T23:58:24.058Z,53.20
